Flight Track Log - Related Links

Times and Time Zones

All times are in EDT time to prevent confusion due to time zone crossing. See the SWA2009 flight status page for this flight to view local times or setup timezone preferences in your user account.

Time Position Orientation Groundspeed Altitude Reporting Facility
EDT Latitude Longitude Course Direction KTS MPH feet Rate Location/Type
Sat 08:50:19 PM 33.6333 -117.9000 235° Southwest 153 176 2,400  Level Southern California TRACON
Sat 08:50:44 PM 33.6197 -117.8958 166° South 152 175 2,600 1,931 Climbing Los Angeles Center
Sat 08:51:46 PM 33.5511 -117.9114 191° South 211 243 5,200 3,024 Climbing Los Angeles Center
Sat 08:52:47 PM 33.4786 -117.9450 201° Southwest 271 312 8,800 3,756 Climbing Los Angeles Center
Sat 08:53:49 PM 33.3942 -117.9639 191° South 302 348 12,900 3,220 Climbing Los Angeles Center
Sat 08:54:50 PM 33.3300 -118.0292 220° Southwest 315 362 15,400 2,293 Climbing Los Angeles Center
Sat 08:55:00 PM 33.5152 -118.1431 235° Southwest  Level FlightAware Approximate
Sat 08:55:52 PM 33.3664 -118.1303 293° West 351 404 17,600  Level Los Angeles Center
Sat 08:56:53 PM 33.4344 -118.2236 311° West 366 421 20,500 2,878 Climbing Los Angeles Center
Sat 08:57:55 PM 33.5033 -118.3203 311° West 377 434 23,500 2,683 Climbing Los Angeles Center
Sat 08:58:56 PM 33.5756 -118.4222 310° West 389 448 26,000 2,244 Climbing Los Angeles Center
Sat 08:59:58 PM 33.6494 -118.5292 310° West 406 467 28,100 1,902 Climbing Los Angeles Center
Sat 09:00:59 PM 33.7261 -118.6372 310° West 418 481 29,900 2,146 Climbing Los Angeles Center
Sat 09:02:01 PM 33.8022 -118.7461 310° West 422 486 32,500 2,516 Climbing Los Angeles Center
Sat 09:03:03 PM 33.8886 -118.8703 310° West 405 466 35,100 2,146 Climbing Los Angeles Center
Sat 09:04:04 PM 33.9597 -118.9717 310° West 397 457 36,900 1,415 Climbing Los Angeles Center
Sat 09:05:06 PM 34.0289 -119.0731 309° West 392 451 38,000 537 Climbing Los Angeles Center
Sat 09:06:07 PM 34.0969 -119.1717 310° West 384 442 38,000  Level Los Angeles Center
Sat 09:07:08 PM 34.1664 -119.2706 310° West 386 444 38,000  Level Los Angeles Center
Sat 09:08:10 PM 34.2517 -119.3525 322° Northwest 392 451 38,000  Level Los Angeles Center
Sat 09:09:11 PM 34.3369 -119.4322 322° Northwest 388 447 38,000  Level Los Angeles Center
Sat 09:10:13 PM 34.4228 -119.5131 322° Northwest 389 448 38,000  Level Los Angeles Center
Sat 09:11:14 PM 34.5075 -119.5917 323° Northwest 385 443 38,000  Level Los Angeles Center
Sat 09:12:16 PM 34.6097 -119.6897 322° Northwest 389 448 38,000  Level Los Angeles Center
Sat 09:13:17 PM 34.6839 -119.7592 322° Northwest 387 445 38,000  Level Los Angeles Center
Sat 09:14:19 PM 34.7694 -119.8392 322° Northwest 387 445 38,000  Level Los Angeles Center
Sat 09:15:20 PM 34.8717 -119.9356 322° Northwest 388 447 38,000  Level Los Angeles Center
Sat 09:16:22 PM 34.9581 -120.0172 322° Northwest 391 450 38,000  Level Los Angeles Center
Sat 09:17:23 PM 35.0436 -120.0992 322° Northwest 392 451 38,000  Level Los Angeles Center
Sat 09:18:25 PM 35.1219 -120.1725 323° Northwest 394 453 38,000  Level Los Angeles Center
Sat 09:19:26 PM 35.2219 -120.2694 322° Northwest 387 445 38,000  Level Los Angeles Center
Sat 09:20:28 PM 35.3072 -120.3506 322° Northwest 388 447 38,000  Level Los Angeles Center
Sat 09:21:30 PM 35.3908 -120.4336 321° Northwest 389 448 38,000  Level Los Angeles Center
Sat 09:21:50 PM 35.4247 -120.4608 327° Northwest 384 442 38,000  Level Oakland Center
Sat 09:22:51 PM 35.5047 -120.5442 320° Northwest 378 435 38,000  Level Oakland Center
Sat 09:23:52 PM 35.5883 -120.6242 322° Northwest 378 435 38,000  Level Oakland Center
Sat 09:24:53 PM 35.6692 -120.7044 321° Northwest 373 429 38,000 -148 Level Oakland Center
Sat 09:25:54 PM 35.7514 -120.7850 322° Northwest 375 432 37,700 -1,140 Descending Oakland Center
Sat 09:26:54 PM 35.8347 -120.8650 322° Northwest 378 435 35,700 -2,066 Descending Oakland Center
Sat 09:27:56 PM 35.9175 -120.9469 321° Northwest 380 437 33,500 -2,115 Descending Oakland Center
Sat 09:28:56 PM 35.9961 -121.0233 322° Northwest 363 418 31,400 -1,884 Descending Oakland Center
Sat 09:29:57 PM 36.0756 -121.0903 326° Northwest 340 391 29,700 -1,820 Descending Oakland Center
Sat 09:30:58 PM 36.1519 -121.1539 326° Northwest 327 376 27,700 -1,869 Descending Oakland Center
Sat 09:31:59 PM 36.2256 -121.2178 325° Northwest 321 369 25,900 -1,770 Descending Oakland Center
Sat 09:33:00 PM 36.2953 -121.2806 324° Northwest 312 359 24,100 -1,770 Descending Oakland Center
Sat 09:34:01 PM 36.3689 -121.3422 326° Northwest 319 367 22,300 -1,967 Descending Oakland Center
Sat 09:35:02 PM 36.4542 -121.4139 326° Northwest 306 352 20,100 -2,016 Descending Oakland Center
Sat 09:36:03 PM 36.5342 -121.4478 341° North 303 349 18,200 -1,770 Descending Oakland Center
Sat 09:37:04 PM 36.6161 -121.4803 342° North 307 353 16,500 -1,884 Descending Oakland Center
Sat 09:38:04 PM 36.6989 -121.5136 342° North 309 356 14,400 -1,785 Descending Oakland Center
Sat 09:39:05 PM 36.7778 -121.5464 342° North 298 343 12,900 -1,820 Descending Oakland Center
Sat 09:40:06 PM 36.8475 -121.5792 339° North 283 326 10,700 -1,721 Descending Oakland Center
Sat 09:41:07 PM 36.9214 -121.6103 341° North 279 321 9,400 -1,525 Descending Oakland Center
Sat 09:42:08 PM 36.9903 -121.6394 341° North 265 305 7,600 -1,574 Descending Oakland Center
Sat 09:43:09 PM 37.0578 -121.6686 341° North 259 298 6,200 -1,180 Descending Oakland Center
Sat 09:44:10 PM 37.1225 -121.6933 343° North 248 285 5,200 -837 Descending Oakland Center
Sat 09:44:35 PM 37.1667 -121.7167 337° Northwest 229 264 5,000 -885 Descending Northern Cal TRACON
Sat 09:45:11 PM 37.1897 -121.7347 328° Northwest 236 272 4,300 -1,175 Descending Oakland Center
Sat 09:46:12 PM 37.2350 -121.7894 316° Northwest 229 264 3,100 -1,190 Descending Oakland Center
Sat 09:47:12 PM 37.2808 -121.8428 317° Northwest 226 260 1,900 -793 Descending Oakland Center
Sat 09:48:13 PM 37.3175 -121.8817 320° Northwest 187 215 1,500 -787 Descending Oakland Center
Sat 09:49:14 PM 37.3439 -121.9131 317° Northwest 153 176 300 -1,180 Descending Oakland Center
Sat 09:51:00 PM 37.3500 -121.9167 North  Level FlightAware Approximate
Sat 09:58:00 PM 37.3627 -121.9291 North  Level Estimated

Login

Don't have an account? Register now (free) for customized features, flight alerts, and more!